Terminal Aerodrome Forecast
Issued by NWS

Home | Current Version | Previous Version | Text Only | Print | Product List | Glossary On
Versions: 1 2 3 4 5 6 7 8 9 10 11 12 13 14 15 16 17 18 19 20
000
FTUS41 KBGM 301700
TAFITH
TAF
KITH 301721Z 3018/3118 32010KT P6SM SCT025 OVC035
     FM310300 VRB03KT P6SM BKN035
     FM311300 16010KT P6SM SCT035 OVC080=

USA.gov is the U.S. government's official web portal to all federal, state and local government web resources and services.